Time;durP1;ratioP1;P1;durP2;ratioP2;P2;SDS_P1;SDS_P2;PMS_P1;PMS_P2;Temp;Humidity;BMP_temperature;BMP_pressure;BME280_temperature;BME280_humidity;BME280_pressure;Samples;Min_cycle;Max_cycle;Signal;HPM_P1;HPM_P2
2023/08/29 00:00:47;;;;;;;19.92;18.60;;;;;;;17.72;66.57;99501.66;5028665;28;98721;-79
2023/08/29 00:03:13;;;;;;;20.00;18.38;;;;;;;17.77;66.70;99529.53;5026501;28;98583;-79
2023/08/29 00:05:39;;;;;;;20.55;19.05;;;;;;;17.71;66.67;99521.16;5023849;28;96820;-79
2023/08/29 00:08:05;;;;;;;19.52;17.90;;;;;;;17.72;66.68;99533.50;5024881;28;96793;-79
2023/08/29 00:10:31;;;;;;;19.60;18.40;;;;;;;17.73;66.79;99536.00;5019533;28;98884;-78
2023/08/29 00:12:56;;;;;;;19.80;18.50;;;;;;;17.72;66.58;99515.75;5016774;28;98301;-78
2023/08/29 00:15:22;;;;;;;19.85;18.45;;;;;;;17.74;66.78;99523.59;5017259;28;96683;-78
2023/08/29 00:17:48;;;;;;;19.13;17.65;;;;;;;17.60;66.78;99527.31;5019975;28;96768;-79
2023/08/29 00:20:13;;;;;;;19.42;17.92;;;;;;;17.67;66.78;99525.03;5014884;28;99144;-78
2023/08/29 00:22:39;;;;;;;19.63;18.27;;;;;;;17.53;67.20;99520.75;5015773;28;98342;-78
2023/08/29 00:25:04;;;;;;;20.23;18.73;;;;;;;17.56;66.89;99542.59;5022346;28;96741;-78
2023/08/29 00:27:30;;;;;;;20.08;18.35;;;;;;;17.63;67.36;99565.06;5030425;28;97347;-78
2023/08/29 00:29:55;;;;;;;20.17;18.83;;;;;;;17.56;66.77;99569.13;5013142;28;97385;-79
2023/08/29 00:32:21;;;;;;;19.50;18.10;;;;;;;17.52;67.16;99558.88;5005560;28;100221;-78
2023/08/29 00:34:46;;;;;;;18.83;17.48;;;;;;;17.58;67.08;99555.75;5007536;28;96754;-78
2023/08/29 00:37:12;;;;;;;20.50;18.80;;;;;;;17.47;67.39;99548.59;5022094;28;96902;-78
2023/08/29 00:39:37;;;;;;;19.27;17.83;;;;;;;17.37;67.20;99523.72;5023505;28;99016;-78
2023/08/29 00:42:04;;;;;;;19.63;18.02;;;;;;;17.41;67.66;99536.63;5010817;28;100602;-78
2023/08/29 00:44:29;;;;;;;19.15;17.73;;;;;;;17.40;67.77;99520.84;5022729;28;96877;-78
2023/08/29 00:46:56;;;;;;;19.73;18.05;;;;;;;17.47;67.48;99519.41;5019173;28;96937;-78
2023/08/29 00:49:23;;;;;;;19.48;18.08;;;;;;;17.40;68.07;99495.16;4996229;28;100447;-78
2023/08/29 00:51:49;;;;;;;19.67;18.30;;;;;;;17.39;67.47;99487.31;5000867;28;100265;-78
2023/08/29 00:54:16;;;;;;;19.58;18.25;;;;;;;17.47;67.77;99519.41;5009885;28;97077;-79
2023/08/29 00:56:43;;;;;;;19.67;18.00;;;;;;;17.46;67.77;99524.84;4994455;28;97075;-79
2023/08/29 00:59:08;;;;;;;19.13;17.83;;;;;;;17.43;67.96;99560.41;5032904;28;97660;-79
2023/08/29 01:01:35;;;;;;;19.00;17.77;;;;;;;17.42;67.86;99543.66;5030423;28;98290;-79
2023/08/29 01:04:01;;;;;;;19.27;17.98;;;;;;;17.44;67.50;99540.88;5027561;28;97194;-78
2023/08/29 01:06:27;;;;;;;18.52;17.13;;;;;;;17.44;67.83;99535.56;5029190;28;96814;-79
2023/08/29 01:08:52;;;;;;;19.27;17.88;;;;;;;17.42;67.39;99529.50;5023162;28;98604;-79
2023/08/29 01:11:37;;;;;;;19.38;17.63;;;;;;;17.42;68.04;99525.09;5027182;28;98539;-79
2023/08/29 01:14:16;;;;;;;18.98;17.60;;;;;;;17.47;67.90;99540.63;5024903;27;97133;-79
2023/08/29 01:16:56;;;;;;;19.60;18.30;;;;;;;17.46;67.60;99527.50;4996181;28;96937;-78
2023/08/29 01:19:23;;;;;;;18.50;17.40;;;;;;;17.34;67.57;99514.19;5021133;27;99082;-78
2023/08/29 01:22:15;;;;;;;17.52;16.52;;;;;;;17.23;67.95;99508.84;5012754;28;99785;-79
2023/08/29 01:24:49;;;;;;;19.65;18.23;;;;;;;17.15;68.56;99476.72;5046793;27;96678;-78
2023/08/29 01:27:16;;;;;;;18.65;17.45;;;;;;;17.20;68.24;99461.34;5030083;27;96877;-78
2023/08/29 01:29:42;;;;;;;19.65;18.05;;;;;;;17.28;68.31;99472.22;5027832;28;97536;-79
2023/08/29 01:32:08;;;;;;;19.02;17.67;;;;;;;17.10;68.69;99463.81;4996650;28;98376;-77
2023/08/29 01:34:34;;;;;;;19.60;18.23;;;;;;;16.86;68.85;99455.88;4995983;28;97587;-78
2023/08/29 01:37:00;;;;;;;19.27;18.00;;;;;;;16.96;68.66;99425.09;4992256;28;97565;-78
2023/08/29 01:39:25;;;;;;;19.60;18.30;;;;;;;16.91;68.72;99405.19;5028290;28;97655;-78
2023/08/29 01:41:51;;;;;;;19.13;17.70;;;;;;;16.87;69.02;99361.31;5014425;28;98799;-78
2023/08/29 01:44:16;;;;;;;18.45;17.15;;;;;;;16.81;69.60;99359.13;5016646;28;97023;-78
2023/08/29 01:46:42;;;;;;;19.00;17.65;;;;;;;16.61;69.83;99316.41;5030909;28;96983;-78
2023/08/29 01:49:07;;;;;;;18.88;17.67;;;;;;;16.50;70.17;99243.03;4997409;27;100288;-78
2023/08/29 01:51:33;;;;;;;18.63;17.42;;;;;;;16.27;70.86;99194.44;5023015;28;97670;-78
2023/08/29 01:53:59;;;;;;;18.13;16.77;;;;;;;16.37;70.54;99191.94;5026866;28;96716;-78
2023/08/29 01:56:26;;;;;;;19.38;17.98;;;;;;;16.26;71.13;99186.59;5022293;28;97035;-77
2023/08/29 01:58:53;;;;;;;18.50;17.40;;;;;;;16.02;71.79;99157.53;4995299;28;97900;-78
2023/08/29 02:01:19;;;;;;;18.40;17.20;;;;;;;16.29;71.42;99159.91;4986071;28;100596;-79
2023/08/29 02:03:45;;;;;;;19.52;18.23;;;;;;;16.30;71.25;99146.53;5016025;28;97393;-79
2023/08/29 02:06:11;;;;;;;17.90;16.80;;;;;;;16.22;71.33;99129.53;5014011;28;96862;-79
2023/08/29 02:08:37;;;;;;;19.15;17.92;;;;;;;16.14;71.32;99127.47;5014524;28;98501;-80
2023/08/29 02:11:05;;;;;;;18.92;17.73;;;;;;;16.22;71.27;99116.31;4979010;28;100085;-79
2023/08/29 02:13:31;;;;;;;19.27;17.98;;;;;;;16.17;71.74;99110.50;5026812;28;98146;-80
2023/08/29 02:15:56;;;;;;;19.08;17.88;;;;;;;16.25;71.26;99111.63;5016153;28;97484;-80
2023/08/29 02:18:22;;;;;;;18.55;17.45;;;;;;;16.13;71.50;99101.13;5007973;28;99171;-80
2023/08/29 02:20:47;;;;;;;18.83;17.63;;;;;;;15.96;71.86;99139.47;5013526;27;98565;-80
2023/08/29 02:23:13;;;;;;;18.70;17.55;;;;;;;15.63;72.94;99147.09;5025894;28;96642;-80
2023/08/29 02:25:39;;;;;;;17.70;16.70;;;;;;;15.82;72.80;99129.91;5020680;28;96827;-80
2023/08/29 02:28:04;;;;;;;18.80;17.60;;;;;;;16.00;72.28;99147.06;5026053;28;98922;-80
2023/08/29 02:30:34;;;;;;;17.40;16.38;;;;;;;15.71;73.18;99145.75;5021550;27;98618;-80
2023/08/29 02:33:00;;;;;;;17.38;16.13;;;;;;;15.80;72.88;99153.84;5018170;28;97084;-80
2023/08/29 02:35:25;;;;;;;18.33;17.23;;;;;;;15.65;73.05;99151.44;5018035;27;97262;-80
2023/08/29 02:37:51;;;;;;;18.20;16.95;;;;;;;15.75;73.08;99166.56;5013017;28;99199;-80
2023/08/29 02:40:17;;;;;;;17.27;16.17;;;;;;;15.68;73.15;99151.22;5015889;28;99079;-80
2023/08/29 02:42:43;;;;;;;17.17;16.13;;;;;;;15.63;73.50;99139.16;5014970;28;96774;-80
2023/08/29 02:45:09;;;;;;;18.05;16.95;;;;;;;15.87;73.27;99162.16;5026027;28;96832;-80
2023/08/29 02:47:35;;;;;;;18.35;17.15;;;;;;;15.81;73.32;99166.09;5008501;28;98825;-80
2023/08/29 02:50:01;;;;;;;17.63;16.60;;;;;;;15.94;73.38;99158.13;5023647;28;98961;-80
2023/08/29 02:52:26;;;;;;;17.65;16.65;;;;;;;16.14;72.63;99151.28;5030096;28;97367;-80
2023/08/29 02:54:52;;;;;;;17.80;16.70;;;;;;;16.18;72.41;99146.63;5006926;28;97124;-80
2023/08/29 02:57:17;;;;;;;18.45;17.23;;;;;;;16.27;72.14;99173.25;4994572;28;100642;-80
2023/08/29 02:59:43;;;;;;;18.00;17.00;;;;;;;16.32;72.15;99187.94;5018934;28;98895;-81
2023/08/29 03:02:08;;;;;;;17.80;16.70;;;;;;;16.39;71.49;99179.41;5020498;27;96672;-81
2023/08/29 03:04:34;;;;;;;18.23;17.13;;;;;;;16.45;71.47;99192.19;5025731;28;97004;-80
2023/08/29 03:07:04;;;;;;;17.98;16.88;;;;;;;16.48;71.42;99188.47;5001169;28;100843;-80
2023/08/29 03:09:30;;;;;;;18.58;17.45;;;;;;;16.59;70.87;99208.84;5014600;28;99769;-81
2023/08/29 03:11:56;;;;;;;18.38;17.17;;;;;;;16.68;71.08;99219.56;5013151;28;96750;-80
2023/08/29 03:14:21;;;;;;;18.17;17.08;;;;;;;16.77;70.92;99223.34;5026669;28;97102;-80
2023/08/29 03:16:47;;;;;;;17.85;16.75;;;;;;;16.85;70.60;99217.47;5013482;28;100575;-80
2023/08/29 03:19:13;;;;;;;18.23;17.05;;;;;;;16.81;70.93;99185.03;5019534;28;98347;-80
2023/08/29 03:21:39;;;;;;;18.00;16.90;;;;;;;16.91;70.62;99178.09;5028765;28;96786;-80
2023/08/29 03:24:06;;;;;;;18.60;17.23;;;;;;;16.94;70.79;99166.41;5011319;28;97046;-81
2023/08/29 03:26:32;;;;;;;18.27;17.13;;;;;;;17.00;70.66;99159.78;4997657;27;98722;-80
2023/08/29 03:28:58;;;;;;;17.95;16.77;;;;;;;16.92;70.54;99139.16;5039337;27;97670;-81
2023/08/29 03:31:23;;;;;;;17.63;16.63;;;;;;;16.98;71.07;99128.06;4999831;28;96978;-81
2023/08/29 03:33:49;;;;;;;18.27;16.73;;;;;;;17.01;71.23;99119.03;5010074;27;97106;-81
2023/08/29 03:36:16;;;;;;;17.73;16.63;;;;;;;17.00;70.96;99109.41;4999438;28;100380;-80
2023/08/29 03:38:42;;;;;;;17.98;16.88;;;;;;;16.94;70.88;99090.38;5014237;28;98497;-81
2023/08/29 03:41:08;;;;;;;17.65;16.65;;;;;;;17.05;71.16;99118.69;4995640;28;97095;-81
2023/08/29 03:43:34;;;;;;;18.13;17.02;;;;;;;17.11;71.19;99130.59;5002537;28;97431;-81
2023/08/29 03:46:02;;;;;;;18.15;16.95;;;;;;;17.05;70.70;99113.38;5012496;28;98735;-81
2023/08/29 03:48:29;;;;;;;18.00;16.90;;;;;;;17.09;70.91;99116.63;5005228;28;98554;-81
2023/08/29 03:50:54;;;;;;;18.67;17.48;;;;;;;17.10;71.32;99128.91;5005373;28;96879;-81
2023/08/29 03:53:22;;;;;;;18.65;17.55;;;;;;;17.16;70.78;99149.63;5022332;27;97153;-81
2023/08/29 03:55:48;;;;;;;18.48;17.27;;;;;;;17.16;70.96;99125.75;5003008;28;100407;-80
2023/08/29 03:58:14;;;;;;;19.15;17.77;;;;;;;17.08;70.77;99096.38;5001440;28;100032;-80
2023/08/29 04:00:41;;;;;;;19.08;17.85;;;;;;;17.10;70.81;99092.63;5019078;28;96716;-81
2023/08/29 04:03:07;;;;;;;20.02;18.63;;;;;;;17.09;71.20;99092.75;5008019;28;97106;-80
2023/08/29 04:05:35;;;;;;;19.35;18.10;;;;;;;17.10;71.17;99127.09;4998800;28;98884;-81
2023/08/29 04:08:04;;;;;;;18.75;17.45;;;;;;;17.05;70.92;99154.97;5003924;28;100585;-80
2023/08/29 04:10:36;;;;;;;19.20;17.90;;;;;;;17.01;70.65;99172.88;4997021;28;96644;-81
2023/08/29 04:13:02;;;;;;;20.00;18.52;;;;;;;17.08;70.79;99174.09;5013831;28;97399;-81
2023/08/29 04:15:27;;;;;;;19.50;18.27;;;;;;;16.96;70.44;99177.72;5012009;28;97550;-81
2023/08/29 04:17:53;;;;;;;19.10;17.80;;;;;;;16.98;70.97;99186.38;5009161;28;99012;-81
2023/08/29 04:20:19;;;;;;;18.80;17.70;;;;;;;16.93;70.66;99202.66;5006780;28;96732;-81
2023/08/29 04:22:45;;;;;;;19.23;18.02;;;;;;;16.99;70.15;99193.41;5013314;28;96793;-81
2023/08/29 04:25:11;;;;;;;19.50;18.20;;;;;;;17.01;70.16;99182.66;5020451;27;98657;-80
2023/08/29 04:27:37;;;;;;;20.27;18.67;;;;;;;17.09;70.06;99169.66;5033384;27;98858;-80
2023/08/29 04:30:04;;;;;;;19.63;18.13;;;;;;;17.10;70.25;99164.19;5023314;27;96548;-80
2023/08/29 04:32:34;;;;;;;20.25;18.70;;;;;;;17.22;70.56;99182.75;5016287;28;96851;-81
2023/08/29 04:35:00;;;;;;;20.05;18.52;;;;;;;17.22;70.74;99170.38;5000375;28;101115;-81
2023/08/29 04:37:25;;;;;;;20.63;19.13;;;;;;;17.18;71.02;99171.56;5031476;28;98367;-80
2023/08/29 04:39:51;;;;;;;19.00;17.80;;;;;;;17.26;71.05;99185.06;5034672;28;96683;-80
2023/08/29 04:42:17;;;;;;;19.50;18.25;;;;;;;17.27;70.89;99192.03;5019720;28;96720;-80
2023/08/29 04:44:42;;;;;;;19.75;18.35;;;;;;;17.28;70.93;99201.69;5015100;28;98645;-80
2023/08/29 04:47:08;;;;;;;19.67;18.27;;;;;;;17.16;70.82;99211.47;5027527;28;98284;-81
2023/08/29 04:49:34;;;;;;;20.90;19.25;;;;;;;17.25;70.57;99227.59;5032068;28;96917;-80
2023/08/29 04:52:01;;;;;;;20.60;19.15;;;;;;;17.26;70.72;99256.66;5019587;28;96918;-80
2023/08/29 04:54:26;;;;;;;20.48;19.17;;;;;;;17.19;70.69;99290.78;5014043;28;101431;-81
2023/08/29 04:56:52;;;;;;;20.92;19.42;;;;;;;17.18;70.87;99296.19;5004813;28;100588;-81
2023/08/29 04:59:18;;;;;;;20.52;19.23;;;;;;;17.15;70.73;99313.19;4999664;28;96817;-81
2023/08/29 05:01:43;;;;;;;19.77;18.58;;;;;;;17.11;70.76;99321.50;5018847;28;97210;-80
2023/08/29 05:04:09;;;;;;;20.55;19.05;;;;;;;17.17;70.98;99300.66;5011544;28;99908;-80
2023/08/29 05:06:35;;;;;;;20.67;19.38;;;;;;;17.16;70.92;99253.03;5005259;28;99918;-80
2023/08/29 05:09:01;;;;;;;20.17;18.88;;;;;;;17.22;71.18;99252.56;4997242;28;96963;-81
2023/08/29 05:11:27;;;;;;;19.65;18.45;;;;;;;17.24;71.03;99255.09;5020224;28;96854;-80
2023/08/29 05:13:52;;;;;;;19.65;18.42;;;;;;;17.32;71.02;99250.88;4997756;28;100159;-80
2023/08/29 05:16:18;;;;;;;20.80;19.48;;;;;;;17.31;70.85;99225.31;4997434;28;100492;-80
2023/08/29 05:18:46;;;;;;;20.33;19.02;;;;;;;17.30;70.93;99199.75;5000901;28;97031;-82
2023/08/29 05:21:12;;;;;;;19.95;18.65;;;;;;;17.34;71.35;99195.91;5028840;28;96951;-81
2023/08/29 05:23:37;;;;;;;19.98;18.77;;;;;;;17.35;71.49;99197.59;5007924;28;100551;-80
2023/08/29 05:26:03;;;;;;;20.55;19.25;;;;;;;17.36;71.38;99178.03;5014543;28;98231;-81
2023/08/29 05:28:28;;;;;;;20.30;18.88;;;;;;;17.25;71.75;99140.09;5039194;27;97100;-81
2023/08/29 05:30:54;;;;;;;21.35;19.95;;;;;;;17.25;71.62;99137.44;5014927;28;97100;-81
2023/08/29 05:33:20;;;;;;;19.95;18.58;;;;;;;17.31;71.44;99140.47;5019050;27;98845;-80
2023/08/29 05:35:45;;;;;;;19.40;18.00;;;;;;;17.23;71.66;99113.72;5021236;27;98717;-81
2023/08/29 05:38:11;;;;;;;20.77;19.38;;;;;;;17.15;71.64;99090.44;5016600;28;96654;-80
2023/08/29 05:40:36;;;;;;;19.73;18.08;;;;;;;17.27;71.22;99120.44;5030102;28;96811;-80
2023/08/29 05:43:02;;;;;;;18.40;17.30;;;;;;;17.24;71.61;99109.25;5033585;28;98762;-81
2023/08/29 05:45:27;;;;;;;20.55;19.10;;;;;;;17.26;71.64;99092.25;5041386;27;98666;-81
2023/08/29 05:47:53;;;;;;;20.00;18.70;;;;;;;17.10;71.85;99075.88;5024710;28;97134;-81
2023/08/29 05:50:18;;;;;;;19.50;18.23;;;;;;;17.16;71.63;99085.97;5022068;28;97064;-81
2023/08/29 05:52:44;;;;;;;20.85;19.55;;;;;;;17.23;71.63;99087.19;5027920;28;99145;-81
2023/08/29 05:55:09;;;;;;;20.52;18.98;;;;;;;17.18;71.76;99092.84;5023672;28;98767;-81
2023/08/29 05:57:35;;;;;;;21.50;19.67;;;;;;;17.29;71.12;99115.84;5012056;28;97418;-81
2023/08/29 06:00:01;;;;;;;21.38;20.08;;;;;;;17.34;71.34;99134.06;5023295;28;96889;-81
2023/08/29 06:02:26;;;;;;;20.30;18.95;;;;;;;17.43;71.24;99136.81;5015080;28;98861;-81
2023/08/29 06:04:52;;;;;;;21.08;19.48;;;;;;;17.46;71.06;99145.50;5017402;27;98510;-81
2023/08/29 06:07:17;;;;;;;20.45;18.98;;;;;;;17.39;71.26;99158.38;5038487;27;97841;-81
2023/08/29 06:09:43;;;;;;;19.83;18.42;;;;;;;17.47;71.04;99182.50;5017067;28;97506;-81
2023/08/29 06:12:09;;;;;;;22.05;20.27;;;;;;;17.53;70.99;99189.13;5022450;28;98657;-81
2023/08/29 06:14:34;;;;;;;19.83;18.63;;;;;;;17.54;71.25;99185.47;5028154;28;98683;-81
2023/08/29 06:17:00;;;;;;;19.95;18.25;;;;;;;17.52;71.58;99192.75;5017298;28;96927;-81
2023/08/29 06:19:25;;;;;;;20.35;19.08;;;;;;;17.48;71.18;99193.94;5027293;28;97131;-81
2023/08/29 06:21:51;;;;;;;20.00;18.65;;;;;;;17.41;71.26;99190.94;5023202;28;98510;-85
2023/08/29 06:24:16;;;;;;;20.02;18.38;;;;;;;17.54;71.27;99212.00;5025893;28;98762;-81
2023/08/29 06:26:42;;;;;;;23.10;20.77;;;;;;;17.51;70.91;99223.75;5027729;27;96608;-81
2023/08/29 06:29:07;;;;;;;20.88;19.48;;;;;;;17.54;70.81;99226.16;5033060;27;96876;-81
2023/08/29 06:31:33;;;;;;;20.23;18.67;;;;;;;17.55;70.67;99219.88;5034477;27;99012;-81
2023/08/29 06:33:59;;;;;;;20.52;19.13;;;;;;;17.50;70.89;99216.72;5025134;27;98485;-81
2023/08/29 06:36:26;;;;;;;21.25;19.83;;;;;;;17.49;70.70;99200.94;5027359;28;96925;-80
2023/08/29 06:38:52;;;;;;;20.70;19.40;;;;;;;17.52;70.99;99203.34;5028681;27;97085;-81
2023/08/29 06:41:17;;;;;;;21.30;19.90;;;;;;;17.54;71.30;99212.00;5019831;27;99037;-80
2023/08/29 06:43:43;;;;;;;21.80;20.33;;;;;;;17.50;71.62;99210.59;5037089;27;98674;-81
2023/08/29 06:46:08;;;;;;;21.10;19.23;;;;;;;17.52;71.26;99209.50;5033649;27;97117;-81
2023/08/29 06:48:34;;;;;;;20.75;19.23;;;;;;;17.55;71.00;99209.25;5029872;27;96962;-81
2023/08/29 06:50:59;;;;;;;21.38;19.67;;;;;;;17.56;70.93;99221.53;5033706;27;98780;-83
2023/08/29 06:53:26;;;;;;;20.77;19.23;;;;;;;17.57;71.25;99215.28;5027760;27;98686;-82
2023/08/29 06:55:52;;;;;;;22.13;20.73;;;;;;;17.59;71.33;99212.50;5026825;27;97138;-82
2023/08/29 06:58:17;;;;;;;22.30;20.52;;;;;;;17.63;71.47;99219.25;5027730;27;97051;-82
2023/08/29 07:00:43;;;;;;;20.67;19.25;;;;;;;17.63;71.59;99203.34;5030619;27;98716;-81
2023/08/29 07:03:08;;;;;;;20.58;19.27;;;;;;;17.60;71.56;99198.28;5025474;27;98886;-82
2023/08/29 07:05:34;;;;;;;22.30;20.60;;;;;;;17.59;71.63;99197.41;5033347;27;96698;-82
2023/08/29 07:08:00;;;;;;;22.30;20.63;;;;;;;17.66;71.43;99195.13;5024975;27;97982;-81
2023/08/29 07:10:25;;;;;;;22.73;21.02;;;;;;;17.72;71.35;99215.03;5031558;27;98854;-82
2023/08/29 07:12:51;;;;;;;21.73;20.33;;;;;;;17.71;71.52;99215.97;5021761;28;98361;-81
2023/08/29 07:15:17;;;;;;;22.45;20.90;;;;;;;17.76;71.32;99219.94;5022273;27;98963;-82
2023/08/29 07:17:42;;;;;;;23.00;20.90;;;;;;;17.81;71.42;99228.41;5041977;27;96792;-81
2023/08/29 07:20:09;;;;;;;22.27;20.63;;;;;;;17.84;71.24;99212.22;5030746;27;99199;-82
2023/08/29 07:22:37;;;;;;;22.95;21.27;;;;;;;17.86;70.92;99205.00;5031014;27;98554;-80
2023/08/29 07:25:03;;;;;;;21.75;20.25;;;;;;;17.92;71.17;99206.31;5037789;27;97767;-81
2023/08/29 07:27:30;;;;;;;22.27;20.88;;;;;;;17.96;71.00;99194.44;5032983;27;97242;-80
2023/08/29 07:29:55;;;;;;;22.42;20.95;;;;;;;17.96;71.10;99197.09;5025092;27;98696;-81
2023/08/29 07:32:21;;;;;;;22.02;20.42;;;;;;;18.00;70.90;99201.19;5033833;27;98331;-80
2023/08/29 07:34:46;;;;;;;22.50;21.00;;;;;;;18.09;70.83;99219.03;5029184;27;96784;-80
2023/08/29 07:37:12;;;;;;;22.67;21.05;;;;;;;18.07;70.89;99218.31;5033143;27;97111;-80
2023/08/29 07:39:37;;;;;;;22.50;20.83;;;;;;;18.07;71.28;99209.50;5037054;27;99063;-81
2023/08/29 07:42:03;;;;;;;20.85;19.55;;;;;;;18.02;71.28;99214.34;5019793;28;98426;-80
2023/08/29 07:44:29;;;;;;;22.20;20.85;;;;;;;18.06;70.82;99218.41;5041250;27;96824;-81
2023/08/29 07:46:57;;;;;;;21.65;19.92;;;;;;;18.15;70.63;99216.81;5055373;27;96826;-80
2023/08/29 07:49:23;;;;;;;21.95;20.35;;;;;;;18.21;70.84;99225.16;5037433;27;99865;-80
2023/08/29 07:51:52;;;;;;;21.65;20.25;;;;;;;18.25;70.96;99221.25;5026576;28;100767;-81
2023/08/29 07:54:18;;;;;;;21.70;20.30;;;;;;;18.25;70.98;99225.72;5005604;28;97049;-81
2023/08/29 07:56:43;;;;;;;21.05;19.65;;;;;;;18.28;71.14;99233.44;5019824;27;96772;-81
2023/08/29 07:59:09;;;;;;;22.48;20.98;;;;;;;18.33;70.82;99233.91;5032070;27;99034;-81
2023/08/29 08:01:35;;;;;;;21.48;19.83;;;;;;;18.46;70.40;99215.94;5027565;27;98213;-80
2023/08/29 08:04:04;;;;;;;22.15;20.75;;;;;;;18.66;69.96;99224.06;5024137;27;96964;-79
2023/08/29 08:06:30;;;;;;;22.13;20.52;;;;;;;18.57;70.13;99206.25;5022838;28;97028;-79
2023/08/29 08:08:56;;;;;;;22.98;21.38;;;;;;;18.64;69.73;99234.81;5015479;28;98899;-79
2023/08/29 08:11:23;;;;;;;22.10;20.17;;;;;;;18.70;69.47;99247.59;5019217;28;98469;-79
2023/08/29 08:13:49;;;;;;;22.95;21.38;;;;;;;18.70;69.54;99236.97;5016004;28;96841;-79
2023/08/29 08:16:14;;;;;;;22.52;21.02;;;;;;;18.69;69.56;99237.09;5018402;28;97342;-80
2023/08/29 08:18:40;;;;;;;22.20;20.50;;;;;;;18.73;69.86;99246.47;5023397;28;98706;-80
2023/08/29 08:21:06;;;;;;;23.27;21.58;;;;;;;18.77;69.66;99243.47;5018502;28;98977;-81
2023/08/29 08:23:31;;;;;;;22.40;20.80;;;;;;;18.74;69.26;99251.72;5025482;27;97229;-81
2023/08/29 08:25:57;;;;;;;20.48;19.02;;;;;;;18.76;69.29;99262.19;5032297;27;98835;-82
2023/08/29 08:28:22;;;;;;;21.98;20.38;;;;;;;18.85;69.38;99245.50;5026713;28;99977;-81
2023/08/29 08:30:48;;;;;;;21.75;20.23;;;;;;;18.88;69.22;99228.41;5029728;27;98983;-81
2023/08/29 08:33:14;;;;;;;21.33;19.55;;;;;;;18.80;68.85;99231.75;5016928;27;96735;-80
2023/08/29 08:35:39;;;;;;;22.15;20.63;;;;;;;18.90;68.68;99256.53;5028263;27;97565;-80
2023/08/29 08:38:07;;;;;;;21.75;20.27;;;;;;;18.82;68.85;99239.56;5009628;28;98677;-81
2023/08/29 08:40:34;;;;;;;21.33;19.63;;;;;;;18.91;68.81;99252.94;5024349;28;98962;-80
2023/08/29 08:43:03;;;;;;;21.25;19.75;;;;;;;18.98;68.51;99250.59;4991578;28;97182;-80
2023/08/29 08:45:29;;;;;;;22.02;20.40;;;;;;;19.08;68.46;99248.84;5011581;28;96742;-81
2023/08/29 08:47:54;;;;;;;22.92;21.15;;;;;;;19.05;68.27;99227.78;5032420;27;98594;-82
2023/08/29 08:50:20;;;;;;;22.00;20.50;;;;;;;19.20;67.63;99249.59;5021475;27;98539;-83
2023/08/29 08:52:46;;;;;;;22.50;20.83;;;;;;;19.19;66.95;99258.53;5017204;28;96872;-83
2023/08/29 08:55:12;;;;;;;24.40;22.63;;;;;;;19.34;66.32;99241.22;5006011;28;96871;-83
2023/08/29 08:57:38;;;;;;;22.98;21.27;;;;;;;19.33;66.42;99233.38;5011091;28;98568;-84
2023/08/29 09:00:07;;;;;;;23.67;21.90;;;;;;;19.55;66.35;99235.84;5010841;28;98395;-83
2023/08/29 09:02:33;;;;;;;24.25;22.45;;;;;;;19.85;65.90;99221.66;5022955;28;97281;-84
2023/08/29 09:04:59;;;;;;;23.67;22.08;;;;;;;19.74;66.22;99218.25;5024557;28;96836;-82
2023/08/29 09:07:24;;;;;;;24.65;22.85;;;;;;;20.00;65.77;99223.91;5030118;27;98797;-84
2023/08/29 09:10:15;;;;;;;22.55;20.85;;;;;;;20.13;65.44;99216.50;5033785;27;98397;-72
2023/08/29 09:12:53;;;;;;;23.67;21.83;;;;;;;20.55;64.98;99218.88;5029902;27;96695;-74
2023/08/29 09:15:19;;;;;;;23.48;21.88;;;;;;;20.50;65.22;99210.44;5014632;28;96804;-74
2023/08/29 09:17:48;;;;;;;23.25;21.58;;;;;;;20.30;65.96;99212.28;5029771;27;98461;-73
2023/08/29 09:20:14;;;;;;;24.40;22.73;;;;;;;20.33;65.07;99220.84;5029207;28;98542;-73
2023/08/29 09:22:42;;;;;;;23.85;22.17;;;;;;;20.62;63.43;99217.31;5026787;28;97364;-73
2023/08/29 09:25:09;;;;;;;25.95;24.05;;;;;;;20.73;63.34;99229.66;5031846;28;96994;-73
2023/08/29 09:27:44;;;;;;;25.77;23.75;;;;;;;20.79;63.00;99223.75;5028889;28;98701;-84
2023/08/29 09:30:12;;;;;;;26.23;24.33;;;;;;;20.70;63.02;99238.78;5001677;28;99956;-84
2023/08/29 09:32:41;;;;;;;24.35;22.30;;;;;;;20.57;63.77;99227.59;5003705;28;97127;-84
2023/08/29 09:35:08;;;;;;;23.95;22.25;;;;;;;20.45;64.30;99218.00;5044283;27;96923;-84
2023/08/29 09:37:39;;;;;;;25.73;23.35;;;;;;;20.16;64.77;99202.03;5013037;28;100543;-85
2023/08/29 09:40:06;;;;;;;;;;;;;;;19.78;64.67;99231.19;5033659;28;98858;-85
2023/08/29 09:42:31;;;;;;;23.77;21.73;;;;;;;19.73;64.41;99219.25;5029812;28;96812;-84
2023/08/29 09:44:57;;;;;;;26.35;24.45;;;;;;;19.70;64.86;99220.38;5034874;28;96611;-84
2023/08/29 09:47:23;;;;;;;24.52;22.70;;;;;;;19.68;64.63;99230.31;5033293;28;98905;-84
2023/08/29 09:49:49;;;;;;;23.75;22.15;;;;;;;19.68;64.65;99224.97;5025066;27;98564;-83
2023/08/29 09:52:15;;;;;;;24.33;22.58;;;;;;;19.73;64.71;99228.06;5031684;27;97175;-90
2023/08/29 09:54:47;;;;;;;23.80;22.15;;;;;;;19.70;64.76;99228.34;5016991;28;96755;-91
2023/08/29 09:57:15;;;;;;;24.83;23.02;;;;;;;19.64;65.41;99235.03;5020119;28;98935;-90
2023/08/29 09:59:42;;;;;;;23.67;21.98;;;;;;;19.66;65.79;99226.94;5021071;28;99155;-85
2023/08/29 10:02:09;;;;;;;26.00;24.00;;;;;;;19.69;65.60;99221.31;5034467;27;97300;-86
2023/08/29 10:04:37;;;;;;;26.40;24.10;;;;;;;19.75;65.75;99238.56;5029255;27;97178;-85
2023/08/29 10:07:05;;;;;;;25.05;23.10;;;;;;;19.59;65.26;99228.44;5032514;28;98790;-85
2023/08/29 10:09:31;;;;;;;25.15;23.25;;;;;;;19.59;65.40;99239.91;5006492;28;98704;-84
2023/08/29 10:11:57;;;;;;;25.75;23.52;;;;;;;19.50;66.14;99221.25;5023532;28;97259;-84
2023/08/29 10:14:23;;;;;;;25.80;23.80;;;;;;;19.44;66.51;99222.66;5005834;27;96875;-85
2023/08/29 10:16:49;;;;;;;27.42;24.35;;;;;;;19.36;67.08;99225.13;5037138;27;99250;-85
2023/08/29 10:19:15;;;;;;;25.48;23.48;;;;;;;19.34;67.21;99219.94;5026366;28;98407;-81
2023/08/29 10:21:42;;;;;;;23.30;21.23;;;;;;;19.34;67.13;99243.88;5017634;27;97196;-82
2023/08/29 10:24:09;;;;;;;24.30;22.27;;;;;;;19.31;67.29;99241.50;5025012;28;96897;-82
2023/08/29 10:26:35;;;;;;;24.92;23.08;;;;;;;19.25;67.39;99242.03;5017597;27;99149;-81
2023/08/29 10:29:00;;;;;;;25.08;23.17;;;;;;;19.27;66.88;99240.09;5008160;28;98401;-83
2023/08/29 10:31:26;;;;;;;24.83;22.98;;;;;;;19.24;67.32;99235.03;5035020;27;96745;-84
2023/08/29 10:33:55;;;;;;;24.48;22.67;;;;;;;19.37;67.02;99242.78;5019911;27;97851;-85
2023/08/29 10:36:20;;;;;;;24.05;21.90;;;;;;;19.46;66.84;99231.34;4999658;28;98782;-85
2023/08/29 10:38:49;;;;;;;24.60;22.70;;;;;;;19.51;66.69;99228.25;5031530;28;98491;-90
2023/08/29 10:41:15;;;;;;;24.95;22.90;;;;;;;19.52;67.05;99245.91;5035445;27;96650;-93
2023/08/29 10:43:41;;;;;;;25.58;23.70;;;;;;;19.45;67.02;99256.25;5034967;28;97265;-91
2023/08/29 10:46:15;;;;;;;26.17;24.05;;;;;;;19.40;66.63;99253.16;5024693;27;97719;-85
2023/08/29 10:48:43;;;;;;;25.08;23.10;;;;;;;19.49;66.33;99236.41;5029766;27;98847;-84
2023/08/29 10:51:14;;;;;;;25.98;24.00;;;;;;;19.57;66.03;99225.88;5015219;27;96710;-83
2023/08/29 10:53:54;;;;;;;26.02;23.83;;;;;;;19.60;66.31;99227.44;5017898;27;97128;-82
2023/08/29 10:56:24;;;;;;;25.15;22.98;;;;;;;19.55;66.37;99233.19;5028874;28;99249;-83
2023/08/29 10:58:50;;;;;;;24.85;22.70;;;;;;;19.49;66.48;99230.22;5015923;28;99131;-81
2023/08/29 11:01:24;;;;;;;25.70;23.40;;;;;;;19.59;66.28;99239.91;5028213;28;97289;-83
2023/08/29 11:03:50;;;;;;;26.20;23.85;;;;;;;19.63;66.15;99249.34;5032093;27;96647;-83
2023/08/29 11:06:17;;;;;;;24.40;22.40;;;;;;;19.66;65.80;99249.09;5020707;27;98927;-84
2023/08/29 11:08:43;;;;;;;26.35;24.17;;;;;;;19.89;65.33;99232.84;5028768;27;98769;-81
2023/08/29 11:11:19;;;;;;;25.80;23.45;;;;;;;20.07;64.97;99228.56;5026307;27;97483;-81
2023/08/29 11:14:01;;;;;;;25.73;23.42;;;;;;;20.16;65.27;99232.19;5035594;27;96912;-81